sensor_id;sensor_type;location;lat;lon;timestamp;P1;durP1;ratioP1;P2;durP2;ratioP2
35644;SDS011;21764;52.042;6.830;2023-10-09T00:04:16;52.45;;;22.50;;
35644;SDS011;21764;52.042;6.830;2023-10-09T00:09:17;69.00;;;27.40;;
35644;SDS011;21764;52.042;6.830;2023-10-09T00:14:27;65.95;;;28.88;;
35644;SDS011;21764;52.042;6.830;2023-10-09T00:19:34;76.07;;;29.75;;
35644;SDS011;21764;52.042;6.830;2023-10-09T00:24:35;78.85;;;29.80;;
35644;SDS011;21764;52.042;6.830;2023-10-09T00:29:35;73.25;;;28.95;;
35644;SDS011;21764;52.042;6.830;2023-10-09T00:34:42;67.03;;;29.33;;
35644;SDS011;21764;52.042;6.830;2023-10-09T00:39:43;73.63;;;30.98;;
35644;SDS011;21764;52.042;6.830;2023-10-09T00:44:44;66.10;;;28.92;;
35644;SDS011;21764;52.042;6.830;2023-10-09T00:49:52;63.03;;;29.00;;
35644;SDS011;21764;52.042;6.830;2023-10-09T00:55:14;59.53;;;28.67;;
35644;SDS011;21764;52.042;6.830;2023-10-09T01:00:21;68.68;;;29.48;;
35644;SDS011;21764;52.042;6.830;2023-10-09T01:05:40;60.85;;;29.67;;
35644;SDS011;21764;52.042;6.830;2023-10-09T01:10:51;69.13;;;29.73;;
35644;SDS011;21764;52.042;6.830;2023-10-09T01:15:56;67.40;;;28.73;;
35644;SDS011;21764;52.042;6.830;2023-10-09T01:20:58;62.63;;;28.92;;
35644;SDS011;21764;52.042;6.830;2023-10-09T01:26:00;70.35;;;29.35;;
35644;SDS011;21764;52.042;6.830;2023-10-09T01:31:01;68.70;;;30.77;;
35644;SDS011;21764;52.042;6.830;2023-10-09T01:36:01;66.97;;;29.05;;
35644;SDS011;21764;52.042;6.830;2023-10-09T01:41:02;75.63;;;30.48;;
35644;SDS011;21764;52.042;6.830;2023-10-09T01:46:08;66.78;;;30.50;;
35644;SDS011;21764;52.042;6.830;2023-10-09T01:51:14;67.28;;;31.23;;
35644;SDS011;21764;52.042;6.830;2023-10-09T01:56:17;63.15;;;30.13;;
35644;SDS011;21764;52.042;6.830;2023-10-09T02:01:18;64.35;;;30.27;;
35644;SDS011;21764;52.042;6.830;2023-10-09T02:06:21;74.75;;;31.77;;
35644;SDS011;21764;52.042;6.830;2023-10-09T02:11:26;66.15;;;31.35;;
35644;SDS011;21764;52.042;6.830;2023-10-09T02:16:41;70.95;;;31.02;;
35644;SDS011;21764;52.042;6.830;2023-10-09T02:21:42;71.82;;;31.35;;
35644;SDS011;21764;52.042;6.830;2023-10-09T02:26:42;67.07;;;31.27;;
35644;SDS011;21764;52.042;6.830;2023-10-09T02:31:52;62.38;;;31.25;;
35644;SDS011;21764;52.042;6.830;2023-10-09T02:37:01;69.20;;;32.67;;
35644;SDS011;21764;52.042;6.830;2023-10-09T02:42:05;66.07;;;32.55;;
35644;SDS011;21764;52.042;6.830;2023-10-09T02:47:15;62.60;;;32.63;;
35644;SDS011;21764;52.042;6.830;2023-10-09T02:52:29;73.72;;;34.72;;
35644;SDS011;21764;52.042;6.830;2023-10-09T02:57:40;79.18;;;36.72;;
35644;SDS011;21764;52.042;6.830;2023-10-09T03:02:43;73.53;;;35.55;;
35644;SDS011;21764;52.042;6.830;2023-10-09T03:07:46;76.50;;;35.72;;
35644;SDS011;21764;52.042;6.830;2023-10-09T03:12:49;70.65;;;35.45;;
35644;SDS011;21764;52.042;6.830;2023-10-09T03:17:53;76.90;;;35.53;;
35644;SDS011;21764;52.042;6.830;2023-10-09T03:22:53;71.15;;;34.70;;
35644;SDS011;21764;52.042;6.830;2023-10-09T03:27:54;67.15;;;35.38;;
35644;SDS011;21764;52.042;6.830;2023-10-09T03:32:58;71.35;;;34.65;;
35644;SDS011;21764;52.042;6.830;2023-10-09T03:38:00;71.18;;;34.90;;
35644;SDS011;21764;52.042;6.830;2023-10-09T03:43:12;66.97;;;35.63;;
35644;SDS011;21764;52.042;6.830;2023-10-09T03:48:13;68.35;;;34.90;;
35644;SDS011;21764;52.042;6.830;2023-10-09T03:53:27;70.47;;;35.50;;
35644;SDS011;21764;52.042;6.830;2023-10-09T03:58:30;72.18;;;36.20;;
35644;SDS011;21764;52.042;6.830;2023-10-09T04:03:33;70.85;;;36.38;;
35644;SDS011;21764;52.042;6.830;2023-10-09T04:08:36;71.88;;;36.40;;
35644;SDS011;21764;52.042;6.830;2023-10-09T04:13:46;70.90;;;35.85;;
35644;SDS011;21764;52.042;6.830;2023-10-09T04:18:47;66.68;;;36.00;;
35644;SDS011;21764;52.042;6.830;2023-10-09T04:23:49;67.78;;;35.47;;
35644;SDS011;21764;52.042;6.830;2023-10-09T04:29:10;72.60;;;35.53;;
35644;SDS011;21764;52.042;6.830;2023-10-09T04:34:27;66.50;;;34.90;;
35644;SDS011;21764;52.042;6.830;2023-10-09T04:39:28;70.38;;;35.97;;
35644;SDS011;21764;52.042;6.830;2023-10-09T04:44:31;68.35;;;36.22;;
35644;SDS011;21764;52.042;6.830;2023-10-09T04:49:37;65.88;;;36.15;;
35644;SDS011;21764;52.042;6.830;2023-10-09T04:54:47;67.47;;;35.83;;
35644;SDS011;21764;52.042;6.830;2023-10-09T05:00:17;70.20;;;36.97;;
35644;SDS011;21764;52.042;6.830;2023-10-09T05:05:27;78.13;;;38.78;;
35644;SDS011;21764;52.042;6.830;2023-10-09T05:10:40;71.32;;;36.25;;
35644;SDS011;21764;52.042;6.830;2023-10-09T05:15:54;76.57;;;38.40;;
35644;SDS011;21764;52.042;6.830;2023-10-09T05:20:56;74.93;;;37.65;;
35644;SDS011;21764;52.042;6.830;2023-10-09T05:26:17;75.60;;;37.42;;
35644;SDS011;21764;52.042;6.830;2023-10-09T05:31:37;68.28;;;38.13;;
35644;SDS011;21764;52.042;6.830;2023-10-09T05:36:56;69.15;;;36.85;;
35644;SDS011;21764;52.042;6.830;2023-10-09T05:42:11;68.93;;;36.97;;
35644;SDS011;21764;52.042;6.830;2023-10-09T05:47:17;63.08;;;35.45;;
35644;SDS011;21764;52.042;6.830;2023-10-09T05:52:27;74.95;;;36.92;;
35644;SDS011;21764;52.042;6.830;2023-10-09T05:57:32;70.43;;;38.35;;
35644;SDS011;21764;52.042;6.830;2023-10-09T06:02:51;72.70;;;38.25;;
35644;SDS011;21764;52.042;6.830;2023-10-09T06:08:10;70.60;;;38.50;;
35644;SDS011;21764;52.042;6.830;2023-10-09T06:13:13;71.38;;;38.70;;
35644;SDS011;21764;52.042;6.830;2023-10-09T06:18:32;64.28;;;37.67;;
35644;SDS011;21764;52.042;6.830;2023-10-09T06:23:34;71.40;;;40.05;;
35644;SDS011;21764;52.042;6.830;2023-10-09T06:29:08;67.55;;;40.03;;
35644;SDS011;21764;52.042;6.830;2023-10-09T06:34:15;67.15;;;38.40;;
35644;SDS011;21764;52.042;6.830;2023-10-09T06:39:15;74.50;;;40.28;;
35644;SDS011;21764;52.042;6.830;2023-10-09T06:44:34;68.47;;;36.97;;
35644;SDS011;21764;52.042;6.830;2023-10-09T06:49:53;73.53;;;39.15;;
35644;SDS011;21764;52.042;6.830;2023-10-09T06:55:27;76.57;;;39.55;;
35644;SDS011;21764;52.042;6.830;2023-10-09T07:00:39;73.50;;;40.10;;
35644;SDS011;21764;52.042;6.830;2023-10-09T07:06:02;66.20;;;39.35;;
35644;SDS011;21764;52.042;6.830;2023-10-09T07:11:09;62.33;;;35.67;;
35644;SDS011;21764;52.042;6.830;2023-10-09T07:16:42;73.13;;;35.38;;
35644;SDS011;21764;52.042;6.830;2023-10-09T07:27:03;57.92;;;33.40;;
35644;SDS011;21764;52.042;6.830;2023-10-09T07:32:09;64.60;;;34.63;;
35644;SDS011;21764;52.042;6.830;2023-10-09T07:37:12;62.67;;;33.30;;
35644;SDS011;21764;52.042;6.830;2023-10-09T07:42:19;58.85;;;32.78;;
35644;SDS011;21764;52.042;6.830;2023-10-09T07:47:26;59.25;;;33.17;;
35644;SDS011;21764;52.042;6.830;2023-10-09T07:52:45;65.28;;;34.33;;
35644;SDS011;21764;52.042;6.830;2023-10-09T07:57:46;53.45;;;32.47;;
35644;SDS011;21764;52.042;6.830;2023-10-09T08:02:52;54.20;;;32.70;;
35644;SDS011;21764;52.042;6.830;2023-10-09T08:08:00;62.47;;;32.70;;
35644;SDS011;21764;52.042;6.830;2023-10-09T08:13:20;59.42;;;31.45;;
35644;SDS011;21764;52.042;6.830;2023-10-09T08:18:39;59.97;;;30.52;;
35644;SDS011;21764;52.042;6.830;2023-10-09T08:23:44;59.97;;;31.85;;
35644;SDS011;21764;52.042;6.830;2023-10-09T08:28:48;50.95;;;30.17;;
35644;SDS011;21764;52.042;6.830;2023-10-09T08:33:48;57.55;;;29.80;;
35644;SDS011;21764;52.042;6.830;2023-10-09T08:38:58;46.25;;;28.67;;
35644;SDS011;21764;52.042;6.830;2023-10-09T08:43:59;50.60;;;29.17;;
35644;SDS011;21764;52.042;6.830;2023-10-09T08:49:03;52.35;;;28.23;;
35644;SDS011;21764;52.042;6.830;2023-10-09T08:54:06;54.28;;;29.30;;
35644;SDS011;21764;52.042;6.830;2023-10-09T08:59:11;50.25;;;28.27;;
35644;SDS011;21764;52.042;6.830;2023-10-09T09:04:12;50.88;;;28.33;;
35644;SDS011;21764;52.042;6.830;2023-10-09T09:09:39;60.75;;;27.30;;
35644;SDS011;21764;52.042;6.830;2023-10-09T09:15:17;48.80;;;26.70;;
35644;SDS011;21764;52.042;6.830;2023-10-09T09:20:22;42.15;;;25.10;;
35644;SDS011;21764;52.042;6.830;2023-10-09T09:25:41;44.17;;;26.30;;
35644;SDS011;21764;52.042;6.830;2023-10-09T09:30:44;43.83;;;24.38;;
35644;SDS011;21764;52.042;6.830;2023-10-09T09:35:57;44.05;;;25.50;;
35644;SDS011;21764;52.042;6.830;2023-10-09T09:40:58;44.65;;;26.70;;
35644;SDS011;21764;52.042;6.830;2023-10-09T09:46:02;50.25;;;27.58;;
35644;SDS011;21764;52.042;6.830;2023-10-09T09:51:08;47.35;;;25.77;;
35644;SDS011;21764;52.042;6.830;2023-10-09T09:56:10;50.42;;;26.27;;
35644;SDS011;21764;52.042;6.830;2023-10-09T10:01:17;42.90;;;25.38;;
35644;SDS011;21764;52.042;6.830;2023-10-09T10:06:27;47.08;;;25.50;;
35644;SDS011;21764;52.042;6.830;2023-10-09T10:11:42;42.55;;;25.95;;
35644;SDS011;21764;52.042;6.830;2023-10-09T10:17:04;45.38;;;26.35;;
35644;SDS011;21764;52.042;6.830;2023-10-09T10:22:23;43.70;;;25.00;;
35644;SDS011;21764;52.042;6.830;2023-10-09T10:27:28;51.88;;;24.02;;
35644;SDS011;21764;52.042;6.830;2023-10-09T10:37:51;36.78;;;23.70;;
35644;SDS011;21764;52.042;6.830;2023-10-09T10:43:00;40.92;;;23.40;;
35644;SDS011;21764;52.042;6.830;2023-10-09T10:48:13;46.80;;;24.88;;
35644;SDS011;21764;52.042;6.830;2023-10-09T10:53:37;45.83;;;23.65;;
35644;SDS011;21764;52.042;6.830;2023-10-09T10:58:53;43.92;;;22.80;;
35644;SDS011;21764;52.042;6.830;2023-10-09T11:04:10;41.95;;;22.05;;
35644;SDS011;21764;52.042;6.830;2023-10-09T11:09:12;41.70;;;21.42;;
35644;SDS011;21764;52.042;6.830;2023-10-09T11:14:22;42.20;;;21.85;;
35644;SDS011;21764;52.042;6.830;2023-10-09T11:19:25;43.85;;;20.85;;
35644;SDS011;21764;52.042;6.830;2023-10-09T11:24:29;40.20;;;19.98;;
35644;SDS011;21764;52.042;6.830;2023-10-09T11:29:36;41.08;;;19.67;;
35644;SDS011;21764;52.042;6.830;2023-10-09T11:35:08;41.65;;;19.40;;
35644;SDS011;21764;52.042;6.830;2023-10-09T11:40:27;38.58;;;20.08;;
35644;SDS011;21764;52.042;6.830;2023-10-09T11:45:50;41.25;;;19.27;;
35644;SDS011;21764;52.042;6.830;2023-10-09T11:50:57;35.40;;;17.42;;
35644;SDS011;21764;52.042;6.830;2023-10-09T11:56:03;41.05;;;17.58;;
35644;SDS011;21764;52.042;6.830;2023-10-09T12:01:10;35.50;;;17.42;;
35644;SDS011;21764;52.042;6.830;2023-10-09T12:06:16;34.85;;;17.58;;
35644;SDS011;21764;52.042;6.830;2023-10-09T12:11:22;39.38;;;18.27;;
35644;SDS011;21764;52.042;6.830;2023-10-09T12:16:28;34.28;;;17.20;;
35644;SDS011;21764;52.042;6.830;2023-10-09T12:21:32;38.58;;;18.45;;
35644;SDS011;21764;52.042;6.830;2023-10-09T12:26:35;33.95;;;17.67;;
35644;SDS011;21764;52.042;6.830;2023-10-09T12:31:38;29.38;;;15.57;;
35644;SDS011;21764;52.042;6.830;2023-10-09T12:36:38;41.67;;;16.83;;
35644;SDS011;21764;52.042;6.830;2023-10-09T12:41:40;25.48;;;15.55;;
35644;SDS011;21764;52.042;6.830;2023-10-09T12:46:41;34.50;;;16.30;;
35644;SDS011;21764;52.042;6.830;2023-10-09T12:52:02;30.63;;;15.63;;
35644;SDS011;21764;52.042;6.830;2023-10-09T12:57:03;33.72;;;15.55;;
35644;SDS011;21764;52.042;6.830;2023-10-09T13:02:04;38.83;;;15.52;;
35644;SDS011;21764;52.042;6.830;2023-10-09T13:07:05;39.13;;;16.25;;
35644;SDS011;21764;52.042;6.830;2023-10-09T13:12:07;35.83;;;16.05;;
35644;SDS011;21764;52.042;6.830;2023-10-09T13:17:10;32.60;;;15.70;;
35644;SDS011;21764;52.042;6.830;2023-10-09T13:22:10;37.33;;;15.35;;
35644;SDS011;21764;52.042;6.830;2023-10-09T13:27:14;37.80;;;15.63;;
35644;SDS011;21764;52.042;6.830;2023-10-09T13:32:21;36.38;;;15.32;;
35644;SDS011;21764;52.042;6.830;2023-10-09T13:37:22;32.53;;;15.70;;
35644;SDS011;21764;52.042;6.830;2023-10-09T13:42:22;36.70;;;14.50;;
35644;SDS011;21764;52.042;6.830;2023-10-09T13:47:26;24.27;;;12.60;;
35644;SDS011;21764;52.042;6.830;2023-10-09T13:52:31;40.33;;;14.77;;
35644;SDS011;21764;52.042;6.830;2023-10-09T13:57:32;27.73;;;13.63;;
35644;SDS011;21764;52.042;6.830;2023-10-09T14:02:33;37.28;;;14.82;;
35644;SDS011;21764;52.042;6.830;2023-10-09T14:07:33;31.15;;;13.60;;
35644;SDS011;21764;52.042;6.830;2023-10-09T14:12:35;24.65;;;12.90;;
35644;SDS011;21764;52.042;6.830;2023-10-09T14:17:39;26.85;;;11.65;;
35644;SDS011;21764;52.042;6.830;2023-10-09T14:22:42;30.85;;;9.95;;
35644;SDS011;21764;52.042;6.830;2023-10-09T14:27:45;21.17;;;9.20;;
35644;SDS011;21764;52.042;6.830;2023-10-09T14:32:48;28.27;;;10.23;;
35644;SDS011;21764;52.042;6.830;2023-10-09T14:37:56;25.00;;;9.57;;
35644;SDS011;21764;52.042;6.830;2023-10-09T14:42:57;29.17;;;9.80;;
35644;SDS011;21764;52.042;6.830;2023-10-09T14:47:58;21.42;;;8.30;;
35644;SDS011;21764;52.042;6.830;2023-10-09T14:53:00;25.23;;;9.07;;
35644;SDS011;21764;52.042;6.830;2023-10-09T14:58:01;23.75;;;9.13;;
35644;SDS011;21764;52.042;6.830;2023-10-09T15:03:03;24.95;;;9.23;;
35644;SDS011;21764;52.042;6.830;2023-10-09T15:08:04;28.73;;;9.27;;
35644;SDS011;21764;52.042;6.830;2023-10-09T15:13:10;24.45;;;9.43;;
35644;SDS011;21764;52.042;6.830;2023-10-09T15:18:13;21.15;;;9.05;;
35644;SDS011;21764;52.042;6.830;2023-10-09T15:23:13;23.75;;;8.70;;
35644;SDS011;21764;52.042;6.830;2023-10-09T15:28:15;18.20;;;8.35;;
35644;SDS011;21764;52.042;6.830;2023-10-09T15:33:17;24.73;;;8.80;;
35644;SDS011;21764;52.042;6.830;2023-10-09T15:38:18;22.10;;;8.18;;
35644;SDS011;21764;52.042;6.830;2023-10-09T15:43:19;22.63;;;9.05;;
35644;SDS011;21764;52.042;6.830;2023-10-09T15:48:20;19.77;;;8.45;;
35644;SDS011;21764;52.042;6.830;2023-10-09T15:53:21;18.83;;;8.07;;
35644;SDS011;21764;52.042;6.830;2023-10-09T15:58:22;20.83;;;8.07;;
35644;SDS011;21764;52.042;6.830;2023-10-09T16:03:23;23.33;;;9.00;;
35644;SDS011;21764;52.042;6.830;2023-10-09T16:08:24;28.38;;;9.10;;
35644;SDS011;21764;52.042;6.830;2023-10-09T16:13:26;30.40;;;9.93;;
35644;SDS011;21764;52.042;6.830;2023-10-09T16:18:28;30.83;;;10.30;;
35644;SDS011;21764;52.042;6.830;2023-10-09T16:23:28;27.13;;;10.90;;
35644;SDS011;21764;52.042;6.830;2023-10-09T16:28:31;25.42;;;10.32;;
35644;SDS011;21764;52.042;6.830;2023-10-09T16:33:33;23.63;;;9.60;;
35644;SDS011;21764;52.042;6.830;2023-10-09T16:38:34;31.02;;;10.95;;
35644;SDS011;21764;52.042;6.830;2023-10-09T16:43:39;24.73;;;10.85;;
35644;SDS011;21764;52.042;6.830;2023-10-09T16:48:43;27.80;;;11.10;;
35644;SDS011;21764;52.042;6.830;2023-10-09T16:53:46;29.95;;;11.70;;
35644;SDS011;21764;52.042;6.830;2023-10-09T16:58:51;23.90;;;11.43;;
35644;SDS011;21764;52.042;6.830;2023-10-09T17:03:52;31.05;;;11.65;;
35644;SDS011;21764;52.042;6.830;2023-10-09T17:08:57;30.65;;;10.98;;
35644;SDS011;21764;52.042;6.830;2023-10-09T17:14:00;28.25;;;11.70;;
35644;SDS011;21764;52.042;6.830;2023-10-09T17:19:01;26.95;;;11.10;;
35644;SDS011;21764;52.042;6.830;2023-10-09T17:24:02;35.95;;;14.20;;
35644;SDS011;21764;52.042;6.830;2023-10-09T17:29:03;68.07;;;24.95;;
35644;SDS011;21764;52.042;6.830;2023-10-09T17:34:04;32.13;;;13.63;;
35644;SDS011;21764;52.042;6.830;2023-10-09T17:39:08;26.67;;;13.48;;
35644;SDS011;21764;52.042;6.830;2023-10-09T17:44:12;37.05;;;16.00;;
35644;SDS011;21764;52.042;6.830;2023-10-09T17:49:15;36.17;;;16.50;;
35644;SDS011;21764;52.042;6.830;2023-10-09T17:54:15;37.97;;;17.88;;
35644;SDS011;21764;52.042;6.830;2023-10-09T17:59:16;36.63;;;18.60;;
35644;SDS011;21764;52.042;6.830;2023-10-09T18:04:18;32.22;;;15.82;;
35644;SDS011;21764;52.042;6.830;2023-10-09T18:09:19;32.78;;;15.27;;
35644;SDS011;21764;52.042;6.830;2023-10-09T18:14:19;34.65;;;15.10;;
35644;SDS011;21764;52.042;6.830;2023-10-09T18:19:20;31.52;;;15.23;;
35644;SDS011;21764;52.042;6.830;2023-10-09T18:24:21;29.25;;;14.40;;
35644;SDS011;21764;52.042;6.830;2023-10-09T18:29:23;34.03;;;14.25;;
35644;SDS011;21764;52.042;6.830;2023-10-09T18:34:24;29.33;;;14.88;;
35644;SDS011;21764;52.042;6.830;2023-10-09T18:39:26;30.65;;;15.70;;
35644;SDS011;21764;52.042;6.830;2023-10-09T18:44:30;32.77;;;15.53;;
35644;SDS011;21764;52.042;6.830;2023-10-09T18:49:31;36.67;;;15.93;;
35644;SDS011;21764;52.042;6.830;2023-10-09T18:54:32;34.03;;;16.58;;
35644;SDS011;21764;52.042;6.830;2023-10-09T18:59:36;34.50;;;16.05;;
35644;SDS011;21764;52.042;6.830;2023-10-09T19:04:36;34.85;;;16.42;;
35644;SDS011;21764;52.042;6.830;2023-10-09T19:09:37;40.15;;;16.40;;
35644;SDS011;21764;52.042;6.830;2023-10-09T19:14:38;34.30;;;17.48;;
35644;SDS011;21764;52.042;6.830;2023-10-09T19:19:38;36.65;;;17.65;;
35644;SDS011;21764;52.042;6.830;2023-10-09T19:24:39;41.63;;;17.65;;
35644;SDS011;21764;52.042;6.830;2023-10-09T19:29:44;39.90;;;16.90;;
35644;SDS011;21764;52.042;6.830;2023-10-09T19:34:46;39.30;;;18.10;;
35644;SDS011;21764;52.042;6.830;2023-10-09T19:39:47;34.15;;;18.20;;
35644;SDS011;21764;52.042;6.830;2023-10-09T19:44:49;40.25;;;17.52;;
35644;SDS011;21764;52.042;6.830;2023-10-09T19:49:52;32.78;;;17.98;;
35644;SDS011;21764;52.042;6.830;2023-10-09T19:54:52;43.15;;;18.48;;
35644;SDS011;21764;52.042;6.830;2023-10-09T19:59:56;44.72;;;19.00;;
35644;SDS011;21764;52.042;6.830;2023-10-09T20:04:57;41.55;;;18.98;;
35644;SDS011;21764;52.042;6.830;2023-10-09T20:10:00;29.95;;;16.52;;
35644;SDS011;21764;52.042;6.830;2023-10-09T20:15:01;37.97;;;18.45;;
35644;SDS011;21764;52.042;6.830;2023-10-09T20:20:03;42.88;;;18.92;;
35644;SDS011;21764;52.042;6.830;2023-10-09T20:30:12;36.83;;;18.13;;
35644;SDS011;21764;52.042;6.830;2023-10-09T20:35:14;36.65;;;19.02;;
35644;SDS011;21764;52.042;6.830;2023-10-09T20:40:16;38.40;;;17.67;;
35644;SDS011;21764;52.042;6.830;2023-10-09T20:45:18;30.88;;;17.38;;
35644;SDS011;21764;52.042;6.830;2023-10-09T20:50:19;39.25;;;17.88;;
35644;SDS011;21764;52.042;6.830;2023-10-09T20:55:20;40.50;;;18.50;;
35644;SDS011;21764;52.042;6.830;2023-10-09T21:00:25;36.13;;;19.10;;
35644;SDS011;21764;52.042;6.830;2023-10-09T21:05:27;42.28;;;19.58;;
35644;SDS011;21764;52.042;6.830;2023-10-09T21:10:27;35.72;;;18.77;;
35644;SDS011;21764;52.042;6.830;2023-10-09T21:15:30;47.35;;;18.95;;
35644;SDS011;21764;52.042;6.830;2023-10-09T21:20:33;37.45;;;18.38;;
35644;SDS011;21764;52.042;6.830;2023-10-09T21:25:34;42.33;;;18.98;;
35644;SDS011;21764;52.042;6.830;2023-10-09T21:30:44;42.17;;;19.05;;
35644;SDS011;21764;52.042;6.830;2023-10-09T21:35:46;43.63;;;20.02;;
35644;SDS011;21764;52.042;6.830;2023-10-09T21:40:56;34.67;;;19.02;;
35644;SDS011;21764;52.042;6.830;2023-10-09T21:45:57;35.78;;;19.17;;
35644;SDS011;21764;52.042;6.830;2023-10-09T21:50:58;36.95;;;18.48;;
35644;SDS011;21764;52.042;6.830;2023-10-09T21:56:07;36.42;;;18.23;;
35644;SDS011;21764;52.042;6.830;2023-10-09T22:01:15;44.15;;;18.75;;
35644;SDS011;21764;52.042;6.830;2023-10-09T22:06:20;36.80;;;18.50;;
35644;SDS011;21764;52.042;6.830;2023-10-09T22:11:24;36.13;;;18.83;;
35644;SDS011;21764;52.042;6.830;2023-10-09T22:16:27;42.85;;;20.10;;
35644;SDS011;21764;52.042;6.830;2023-10-09T22:21:28;46.80;;;19.48;;
35644;SDS011;21764;52.042;6.830;2023-10-09T22:26:29;43.35;;;19.20;;
35644;SDS011;21764;52.042;6.830;2023-10-09T22:31:31;35.70;;;18.58;;
35644;SDS011;21764;52.042;6.830;2023-10-09T22:36:37;37.58;;;17.42;;
35644;SDS011;21764;52.042;6.830;2023-10-09T22:41:47;36.58;;;18.15;;
35644;SDS011;21764;52.042;6.830;2023-10-09T22:46:53;42.90;;;18.77;;
35644;SDS011;21764;52.042;6.830;2023-10-09T22:51:55;39.83;;;19.75;;
35644;SDS011;21764;52.042;6.830;2023-10-09T22:56:56;50.35;;;20.05;;
35644;SDS011;21764;52.042;6.830;2023-10-09T23:01:58;39.30;;;19.77;;
35644;SDS011;21764;52.042;6.830;2023-10-09T23:06:59;39.28;;;19.73;;
35644;SDS011;21764;52.042;6.830;2023-10-09T23:12:04;40.33;;;20.27;;
35644;SDS011;21764;52.042;6.830;2023-10-09T23:17:07;39.15;;;19.85;;
35644;SDS011;21764;52.042;6.830;2023-10-09T23:22:08;45.95;;;21.60;;
35644;SDS011;21764;52.042;6.830;2023-10-09T23:27:29;45.67;;;21.95;;
35644;SDS011;21764;52.042;6.830;2023-10-09T23:32:56;42.92;;;20.35;;
35644;SDS011;21764;52.042;6.830;2023-10-09T23:38:20;41.65;;;19.50;;
35644;SDS011;21764;52.042;6.830;2023-10-09T23:43:31;48.45;;;20.65;;
35644;SDS011;21764;52.042;6.830;2023-10-09T23:48:34;42.70;;;21.33;;
35644;SDS011;21764;52.042;6.830;2023-10-09T23:53:37;41.58;;;19.30;;
35644;SDS011;21764;52.042;6.830;2023-10-09T23:58:46;42.60;;;22.00;;
